Time;durP1;ratioP1;P1;durP2;ratioP2;P2;SDS_P1;SDS_P2;PMS_P1;PMS_P2;Temp;Humidity;BMP_temperature;BMP_pressure;BME280_temperature;BME280_humidity;BME280_pressure;Samples;Min_cycle;Max_cycle;Signal;HPM_P1;HPM_P2
2024/01/28 00:01:17;;;;;;;1.70;1.40;;;;;;;13.40;50.50;98918.87;105619;1255;72809;-35
2024/01/28 00:03:44;;;;;;;1.50;1.30;;;;;;;13.40;50.50;98918.40;105630;1259;66005;-35
2024/01/28 00:06:11;;;;;;;1.50;1.40;;;;;;;13.40;50.52;98928.12;105455;1259;72594;-36
2024/01/28 00:08:38;;;;;;;1.70;1.60;;;;;;;13.40;50.51;98934.96;105544;1259;60530;-37
2024/01/28 00:11:04;;;;;;;2.00;1.50;;;;;;;13.40;50.52;98941.09;105449;1257;60448;-37
2024/01/28 00:13:34;;;;;;;1.20;1.10;;;;;;;13.40;50.63;98946.70;105522;1255;73563;-35
2024/01/28 00:16:01;;;;;;;1.50;1.30;;;;;;;13.40;50.54;98948.95;105629;1259;66056;-34
2024/01/28 00:18:29;;;;;;;1.40;1.20;;;;;;;13.41;50.54;98952.82;105668;1257;72420;-35
2024/01/28 00:20:56;;;;;;;1.50;1.40;;;;;;;13.41;50.57;98955.84;105618;1259;60418;-35
2024/01/28 00:23:23;;;;;;;1.50;1.30;;;;;;;13.41;50.60;98963.16;105669;1255;60440;-35
2024/01/28 00:25:49;;;;;;;1.70;1.50;;;;;;;13.41;50.48;98969.94;105634;1257;73595;-35
2024/01/28 00:28:16;;;;;;;1.40;1.30;;;;;;;13.41;50.57;98972.85;105626;1258;65885;-35
2024/01/28 00:30:43;;;;;;;1.50;1.40;;;;;;;13.42;50.46;98978.70;105277;1260;72475;-35
2024/01/28 00:33:10;;;;;;;1.80;1.30;;;;;;;13.42;50.37;98978.45;105542;1259;60489;-35
2024/01/28 00:35:37;;;;;;;1.60;1.30;;;;;;;13.42;50.44;98980.98;105461;1257;60536;-35
2024/01/28 00:38:04;;;;;;;1.60;1.30;;;;;;;13.42;50.51;98985.16;105327;1255;73483;-36
2024/01/28 00:40:31;;;;;;;1.70;1.60;;;;;;;13.42;50.42;98988.89;105469;1259;65582;-36
2024/01/28 00:42:58;;;;;;;2.00;1.50;;;;;;;13.42;50.49;98988.45;105655;1257;72355;-35
2024/01/28 00:45:25;;;;;;;1.70;1.30;;;;;;;13.42;50.51;98993.03;105519;1259;60367;-36
2024/01/28 00:47:51;;;;;;;2.20;1.40;;;;;;;13.43;50.47;98994.63;105472;1257;60358;-36
2024/01/28 00:50:20;;;;;;;1.60;1.50;;;;;;;13.43;50.48;98997.48;105585;1255;73754;-36
2024/01/28 00:52:46;;;;;;;1.40;1.30;;;;;;;13.44;50.44;99006.30;105627;1259;65321;-36
2024/01/28 00:55:13;;;;;;;2.10;1.70;;;;;;;13.43;50.53;99004.27;105628;1257;72581;-36
2024/01/28 00:57:40;;;;;;;2.30;1.60;;;;;;;13.44;50.45;99010.88;105575;1258;60439;-36
2024/01/28 01:00:08;;;;;;;1.50;1.40;;;;;;;13.44;50.57;99017.39;105473;1259;60341;-37
2024/01/28 01:02:35;;;;;;;1.60;1.30;;;;;;;13.43;50.45;99019.21;105414;1257;73845;-36
2024/01/28 01:05:01;;;;;;;1.60;1.50;;;;;;;13.44;50.44;99018.57;105656;1259;66139;-36
2024/01/28 01:07:28;;;;;;;2.00;1.50;;;;;;;13.44;50.53;99017.92;105557;1254;72294;-37
2024/01/28 01:09:56;;;;;;;1.60;1.30;;;;;;;13.44;50.56;99020.93;105631;1258;60517;-35
2024/01/28 01:12:22;;;;;;;3.40;1.50;;;;;;;13.44;50.56;99022.34;105497;1257;60440;-37
2024/01/28 01:14:49;;;;;;;1.30;1.20;;;;;;;13.44;50.50;99026.48;105525;1257;73812;-35
2024/01/28 01:17:16;;;;;;;1.40;1.30;;;;;;;13.45;50.48;99029.05;105358;1261;66263;-35
2024/01/28 01:19:42;;;;;;;1.60;1.30;;;;;;;13.45;50.45;99035.35;105386;1257;72090;-37
2024/01/28 01:22:10;;;;;;;1.50;1.40;;;;;;;13.45;50.38;99036.69;105512;1258;60436;-35
2024/01/28 01:24:37;;;;;;;2.30;1.60;;;;;;;13.45;50.56;99035.13;105626;1254;60438;-36
2024/01/28 01:27:04;;;;;;;2.30;1.50;;;;;;;13.45;50.46;99035.28;105614;1259;73620;-35
2024/01/28 01:29:31;;;;;;;2.10;1.30;;;;;;;13.45;50.50;99034.10;105559;1258;66297;-36
2024/01/28 01:31:57;;;;;;;1.40;1.30;;;;;;;13.46;50.41;99031.36;105476;1257;71995;-35
2024/01/28 01:34:24;;;;;;;1.50;1.40;;;;;;;13.45;50.55;99028.02;105314;1259;60615;-37
2024/01/28 01:36:51;;;;;;;1.60;1.30;;;;;;;13.46;50.42;99031.47;105621;1257;60433;-37
2024/01/28 01:39:18;;;;;;;1.80;1.50;;;;;;;13.46;50.53;99037.11;105550;1260;73822;-34
2024/01/28 01:41:45;;;;;;;1.50;1.30;;;;;;;13.46;50.45;99040.61;105499;1258;66194;-36
2024/01/28 01:44:11;;;;;;;1.70;1.40;;;;;;;13.47;50.38;99043.19;105557;1256;72586;-36
2024/01/28 01:46:39;;;;;;;1.60;1.40;;;;;;;13.46;50.42;99047.94;105396;1259;60776;-37
2024/01/28 01:49:05;;;;;;;1.50;1.40;;;;;;;13.46;50.50;99046.70;105658;1258;60529;-37
2024/01/28 01:51:32;;;;;;;2.70;1.80;;;;;;;13.47;50.40;99051.10;105652;1257;73599;-34
2024/01/28 01:53:59;;;;;;;1.70;1.40;;;;;;;13.47;50.59;99053.95;105588;1259;65864;-35
2024/01/28 01:56:27;;;;;;;1.50;1.40;;;;;;;13.47;50.44;99059.49;105431;1257;72572;-35
2024/01/28 01:58:53;;;;;;;1.90;1.50;;;;;;;13.47;50.47;99057.88;105611;1259;60354;-36
2024/01/28 02:01:20;;;;;;;1.40;1.20;;;;;;;13.47;50.43;99063.52;105391;1259;60444;-34
2024/01/28 02:03:46;;;;;;;2.10;1.60;;;;;;;13.47;50.41;99065.30;105219;1257;73903;-35
2024/01/28 02:06:14;;;;;;;4.00;1.60;;;;;;;13.47;50.53;99070.37;105581;1259;66003;-35
2024/01/28 02:08:40;;;;;;;1.70;1.50;;;;;;;13.48;50.53;99071.92;105430;1260;72450;-36
2024/01/28 02:11:07;;;;;;;2.20;1.60;;;;;;;13.47;50.48;99074.13;105508;1259;60450;-35
2024/01/28 02:13:34;;;;;;;1.60;1.40;;;;;;;13.48;50.49;99080.31;105481;1259;60547;-35
2024/01/28 02:16:00;;;;;;;1.80;1.40;;;;;;;13.48;50.51;99082.58;105497;1260;73853;-35
2024/01/28 02:18:27;;;;;;;2.00;1.60;;;;;;;13.48;50.47;99087.96;105554;1259;60446;-35
2024/01/28 02:20:54;;;;;;;1.50;1.40;;;;;;;13.48;50.42;99091.77;105645;1257;71417;-34
2024/01/28 02:23:21;;;;;;;1.60;1.50;;;;;;;13.48;50.39;99095.34;105675;1259;60437;-36
2024/01/28 02:25:49;;;;;;;1.60;1.50;;;;;;;13.48;50.38;99101.04;105547;1258;60421;-35
2024/01/28 02:28:16;;;;;;;1.50;1.40;;;;;;;13.48;50.28;99100.66;105658;1255;72624;-35
2024/01/28 02:30:43;;;;;;;2.60;1.50;;;;;;;13.49;50.45;99104.22;105510;1259;66177;-36
2024/01/28 02:33:10;;;;;;;2.20;1.60;;;;;;;13.49;50.37;99107.71;105500;1257;72587;-35
2024/01/28 02:35:37;;;;;;;1.80;1.50;;;;;;;13.50;50.41;99107.81;105504;1259;60548;-35
2024/01/28 02:38:04;;;;;;;1.50;1.40;;;;;;;13.50;50.38;99111.20;105650;1254;60603;-35
2024/01/28 02:40:31;;;;;;;1.60;1.50;;;;;;;13.49;50.46;99113.58;105564;1255;73839;-35
2024/01/28 02:42:58;;;;;;;1.70;1.40;;;;;;;13.50;50.43;99116.75;105555;1255;66293;-36
2024/01/28 02:45:25;;;;;;;1.40;1.30;;;;;;;13.50;50.44;99118.15;105599;1257;72686;-35
2024/01/28 02:47:51;;;;;;;1.60;1.50;;;;;;;13.50;50.31;99128.38;105530;1259;60559;-36
2024/01/28 02:50:18;;;;;;;1.90;1.50;;;;;;;13.51;50.44;99128.42;105502;1259;60774;-35
2024/01/28 02:52:45;;;;;;;1.80;1.60;;;;;;;13.51;50.52;99131.98;105532;1261;72817;-35
2024/01/28 02:55:11;;;;;;;1.70;1.60;;;;;;;13.51;50.37;99127.88;105616;1259;60406;-35
2024/01/28 02:57:38;;;;;;;1.80;1.60;;;;;;;13.51;50.45;99135.52;105595;1259;60377;-35
2024/01/28 03:00:06;;;;;;;2.30;1.60;;;;;;;13.51;50.49;99139.62;105665;1258;60418;-36
2024/01/28 03:02:33;;;;;;;1.40;1.30;;;;;;;13.51;50.59;99144.41;105653;1259;62772;-36
2024/01/28 03:05:00;;;;;;;1.50;1.30;;;;;;;13.51;50.43;99146.23;105672;1255;73545;-36
2024/01/28 03:07:27;;;;;;;1.40;1.30;;;;;;;13.51;50.49;99153.55;105424;1263;63918;-36
2024/01/28 03:09:53;;;;;;;2.10;1.50;;;;;;;13.52;50.45;99162.86;105700;1258;72972;-36
2024/01/28 03:12:20;;;;;;;1.80;1.50;;;;;;;13.52;50.44;99163.06;105487;1259;60427;-35
2024/01/28 03:14:47;;;;;;;1.50;1.40;;;;;;;13.53;50.54;99164.63;105634;1255;60505;-36
2024/01/28 03:17:13;;;;;;;1.90;1.50;;;;;;;13.52;50.48;99168.77;106184;1255;73540;-35
2024/01/28 03:19:40;;;;;;;1.40;1.30;;;;;;;13.53;50.39;99180.24;105548;1260;66273;-36
2024/01/28 03:22:07;;;;;;;1.50;1.40;;;;;;;13.53;50.51;99182.02;105452;1258;72592;-36
2024/01/28 03:24:34;;;;;;;2.20;1.40;;;;;;;13.53;50.41;99183.36;105647;1259;60443;-36
2024/01/28 03:27:00;;;;;;;2.00;1.60;;;;;;;13.54;50.55;99184.92;105599;1258;60434;-36
2024/01/28 03:29:27;;;;;;;2.00;1.50;;;;;;;13.54;50.50;99184.80;105549;1255;73833;-35
2024/01/28 03:31:54;;;;;;;2.00;1.70;;;;;;;13.54;50.42;99188.04;105368;1259;65826;-35
2024/01/28 03:34:20;;;;;;;1.50;1.40;;;;;;;13.55;50.62;99194.17;105442;1257;72607;-35
2024/01/28 03:36:47;;;;;;;2.00;1.70;;;;;;;13.55;50.58;99197.94;105220;1262;60540;-35
2024/01/28 03:39:14;;;;;;;1.60;1.40;;;;;;;13.55;50.42;99196.48;105441;1259;60440;-35
2024/01/28 03:41:41;;;;;;;1.70;1.50;;;;;;;13.56;50.56;99204.83;105528;1254;73784;-35
2024/01/28 03:44:07;;;;;;;1.60;1.40;;;;;;;13.56;50.55;99206.93;105472;1260;66068;-35
2024/01/28 03:46:35;;;;;;;1.50;1.40;;;;;;;13.56;50.42;99211.13;105617;1264;60547;-35
2024/01/28 03:49:02;;;;;;;1.70;1.50;;;;;;;13.56;50.53;99213.71;105668;1259;60540;-35
2024/01/28 03:51:29;;;;;;;1.50;1.30;;;;;;;13.57;50.52;99216.52;105615;1254;60526;-35
2024/01/28 03:53:57;;;;;;;1.70;1.60;;;;;;;13.57;50.53;99222.90;105583;1260;73595;-35
2024/01/28 03:56:26;;;;;;;1.50;1.30;;;;;;;13.57;50.51;99231.14;105444;1258;66242;-35
2024/01/28 03:58:52;;;;;;;2.50;1.50;;;;;;;13.57;50.39;99241.31;105459;1254;72494;-36
2024/01/28 04:01:34;;;;;;;1.50;1.40;;;;;;;13.57;50.31;99238.57;105391;1256;60453;-36
2024/01/28 04:04:01;;;;;;;1.90;1.70;;;;;;;13.58;50.45;99244.27;105566;1260;60414;-36
2024/01/28 04:06:28;;;;;;;1.30;1.20;;;;;;;13.58;50.39;99251.91;105620;1257;73756;-36
2024/01/28 04:08:55;;;;;;;1.70;1.50;;;;;;;13.58;50.55;99262.52;105684;1259;64991;-36
2024/01/28 04:11:28;;;;;;;1.80;1.60;;;;;;;13.58;50.37;99265.48;105664;1258;72382;-36
2024/01/28 04:13:55;;;;;;;1.80;1.60;;;;;;;13.59;50.50;99258.89;105616;1262;60582;-36
2024/01/28 04:16:22;;;;;;;1.80;1.50;;;;;;;13.59;50.54;99251.04;105524;1260;60437;-36
2024/01/28 04:18:49;;;;;;;1.70;1.60;;;;;;;13.59;50.42;99267.14;105478;1254;73550;-37
2024/01/28 04:21:16;;;;;;;1.60;1.40;;;;;;;13.59;50.44;99271.23;105499;1260;66240;-34
2024/01/28 04:23:43;;;;;;;1.80;1.50;;;;;;;13.59;50.38;99276.61;105488;1258;72370;-36
2024/01/28 04:26:11;;;;;;;2.20;1.50;;;;;;;13.60;50.33;99276.34;105583;1260;60575;-37
2024/01/28 04:28:37;;;;;;;1.80;1.40;;;;;;;13.60;50.40;99281.67;105719;1254;60379;-35
2024/01/28 04:31:04;;;;;;;2.00;1.40;;;;;;;13.60;50.34;99287.16;105578;1256;73777;-36
2024/01/28 04:33:31;;;;;;;1.60;1.50;;;;;;;13.61;50.45;99288.02;105488;1260;66365;-37
2024/01/28 04:35:58;;;;;;;1.90;1.50;;;;;;;13.62;50.52;99288.88;105614;1258;72618;-37
2024/01/28 04:38:24;;;;;;;2.80;1.90;;;;;;;13.61;50.35;99288.50;105725;1260;60571;-36
2024/01/28 04:40:51;;;;;;;1.70;1.60;;;;;;;13.62;50.51;99288.23;105704;1254;61250;-37
2024/01/28 04:43:20;;;;;;;2.30;1.40;;;;;;;13.62;50.36;99290.05;105695;1260;74636;-36
2024/01/28 04:45:47;;;;;;;1.60;1.50;;;;;;;13.63;50.52;99288.08;105515;1259;65672;-36
2024/01/28 04:48:14;;;;;;;1.70;1.50;;;;;;;13.62;50.36;99290.06;105421;1257;72617;-38
2024/01/28 04:50:41;;;;;;;2.40;1.70;;;;;;;13.62;50.43;99290.92;105534;1260;61234;-36
2024/01/28 04:53:07;;;;;;;1.60;1.50;;;;;;;13.64;50.42;99294.14;105666;1255;61241;-36
2024/01/28 04:55:34;;;;;;;1.60;1.40;;;;;;;13.63;50.43;99294.69;105562;1255;74371;-37
2024/01/28 04:58:01;;;;;;;1.80;1.50;;;;;;;13.63;50.50;99295.45;105503;1260;66141;-37
2024/01/28 05:00:29;;;;;;;2.30;1.70;;;;;;;13.65;50.43;99297.20;105624;1260;72571;-37
2024/01/28 05:02:56;;;;;;;1.70;1.50;;;;;;;13.64;50.46;99298.83;105678;1259;61237;-37
2024/01/28 05:05:23;;;;;;;3.00;1.60;;;;;;;13.64;50.39;99303.29;105582;1258;61330;-37
2024/01/28 05:07:49;;;;;;;1.70;1.50;;;;;;;13.64;50.41;99306.89;105627;1258;74177;-37
2024/01/28 05:10:19;;;;;;;2.30;1.70;;;;;;;13.65;50.36;99307.70;105671;1260;65532;-35
2024/01/28 05:12:47;;;;;;;2.00;1.60;;;;;;;13.65;50.36;99319.98;105588;1258;71442;-35
2024/01/28 05:15:16;;;;;;;1.60;1.50;;;;;;;13.66;50.47;99328.70;105447;1267;61235;-35
2024/01/28 05:17:44;;;;;;;1.70;1.60;;;;;;;13.66;50.47;99324.83;105638;1260;61343;-35
2024/01/28 05:20:11;;;;;;;2.20;1.50;;;;;;;13.66;50.39;99323.04;105580;1260;74573;-35
2024/01/28 05:22:38;;;;;;;2.10;1.80;;;;;;;13.66;50.51;99320.23;105771;1267;66072;-35
2024/01/28 05:25:05;;;;;;;2.10;1.60;;;;;;;13.66;50.45;99321.25;105431;1260;72372;-35
2024/01/28 05:27:32;;;;;;;2.30;1.50;;;;;;;13.67;50.35;99330.37;105892;1260;61359;-35
2024/01/28 05:29:59;;;;;;;1.90;1.50;;;;;;;13.67;50.47;99328.31;105649;1259;61346;-36
2024/01/28 05:32:26;;;;;;;1.70;1.50;;;;;;;13.67;50.25;99332.63;105517;1260;74495;-36
2024/01/28 05:34:54;;;;;;;2.20;1.70;;;;;;;13.68;50.44;99336.66;105667;1260;66147;-36
2024/01/28 05:37:21;;;;;;;1.70;1.60;;;;;;;13.68;50.33;99338.43;105634;1258;72701;-36
2024/01/28 05:39:48;;;;;;;1.80;1.60;;;;;;;13.68;50.42;99340.38;105521;1259;61250;-35
2024/01/28 05:42:15;;;;;;;1.60;1.40;;;;;;;13.68;50.41;99344.61;105502;1260;61243;-36
2024/01/28 05:44:42;;;;;;;1.50;1.40;;;;;;;13.68;50.38;99347.36;105618;1260;74576;-35
2024/01/28 05:47:09;;;;;;;1.70;1.50;;;;;;;13.69;50.42;99352.54;105539;1257;64325;-35
2024/01/28 05:49:35;;;;;;;1.30;1.20;;;;;;;13.69;50.41;99357.17;105563;1258;71835;-34
2024/01/28 05:52:03;;;;;;;1.60;1.50;;;;;;;13.69;50.43;99365.56;105650;1259;61340;-36
2024/01/28 05:54:30;;;;;;;1.60;1.50;;;;;;;13.70;50.42;99363.36;105723;1260;61286;-34
2024/01/28 05:56:57;;;;;;;3.10;1.50;;;;;;;13.70;50.35;99362.45;105590;1255;74585;-34
2024/01/28 05:59:23;;;;;;;1.80;1.60;;;;;;;13.70;50.46;99370.25;105559;1259;66347;-36
2024/01/28 06:01:50;;;;;;;1.70;1.60;;;;;;;13.70;50.35;99377.25;105602;1255;73156;-35
2024/01/28 06:04:16;;;;;;;2.30;1.80;;;;;;;13.71;50.47;99383.06;105555;1257;61289;-35
2024/01/28 06:06:43;;;;;;;2.40;1.80;;;;;;;13.71;50.40;99386.98;105475;1258;61330;-36
2024/01/28 06:09:10;;;;;;;1.90;1.40;;;;;;;13.71;50.40;99385.00;105591;1255;74346;-36
2024/01/28 06:11:37;;;;;;;2.50;1.60;;;;;;;13.71;50.29;99387.31;105694;1260;66212;-36
2024/01/28 06:14:04;;;;;;;2.00;1.60;;;;;;;13.72;50.41;99390.11;105645;1260;72568;-35
2024/01/28 06:16:30;;;;;;;1.90;1.50;;;;;;;13.73;50.46;99396.52;105570;1258;61225;-35
2024/01/28 06:18:57;;;;;;;2.00;1.50;;;;;;;13.73;50.55;99397.77;105712;1254;61247;-36
2024/01/28 06:21:24;;;;;;;2.90;1.70;;;;;;;13.73;50.41;99401.15;105463;1254;74619;-36
2024/01/28 06:23:51;;;;;;;1.70;1.60;;;;;;;13.73;50.37;99406.42;105454;1258;65851;-36
2024/01/28 06:26:18;;;;;;;1.90;1.70;;;;;;;13.73;50.33;99412.08;105551;1260;72571;-36
2024/01/28 06:28:48;;;;;;;2.10;1.50;;;;;;;13.74;50.37;99411.64;105443;1258;61567;-36
2024/01/28 06:31:15;;;;;;;2.40;1.60;;;;;;;13.74;50.51;99422.95;105495;1260;61237;-38
2024/01/28 06:33:43;;;;;;;2.30;1.90;;;;;;;13.75;50.39;99425.91;105555;1260;74507;-37
2024/01/28 06:36:18;;;;;;;2.70;1.70;;;;;;;13.75;50.29;99430.49;105586;1259;66249;-36
2024/01/28 06:38:44;;;;;;;1.90;1.70;;;;;;;13.75;50.37;99429.25;105696;1254;72428;-37
2024/01/28 06:41:11;;;;;;;1.50;1.40;;;;;;;13.76;50.37;99427.58;105664;1259;61237;-37
2024/01/28 06:43:38;;;;;;;1.70;1.50;;;;;;;13.76;50.45;99430.15;105516;1259;61231;-37
2024/01/28 06:46:04;;;;;;;2.00;1.50;;;;;;;13.76;50.41;99434.08;105436;1260;74501;-37
2024/01/28 06:48:31;;;;;;;1.60;1.50;;;;;;;13.77;50.26;99437.42;105527;1267;66065;-37
2024/01/28 06:50:58;;;;;;;2.40;1.60;;;;;;;13.77;50.30;99443.95;105637;1260;72378;-35
2024/01/28 06:53:25;;;;;;;1.60;1.40;;;;;;;13.78;50.44;99447.29;105517;1260;61404;-37
2024/01/28 06:55:51;;;;;;;2.20;1.50;;;;;;;13.78;50.23;99451.76;105566;1254;61383;-36
2024/01/28 06:58:19;;;;;;;2.40;1.70;;;;;;;13.78;50.30;99448.15;105615;1254;74664;-35
2024/01/28 07:00:46;;;;;;;1.80;1.60;;;;;;;13.79;50.37;99452.88;105636;1257;65491;-35
2024/01/28 07:03:12;;;;;;;1.80;1.50;;;;;;;13.79;50.32;99456.80;105781;1254;72399;-35
2024/01/28 07:05:39;;;;;;;2.20;1.70;;;;;;;13.79;50.44;99461.34;105484;1259;61401;-36
2024/01/28 07:08:07;;;;;;;2.90;1.60;;;;;;;13.79;50.37;99462.79;105610;1254;61442;-36
2024/01/28 07:10:34;;;;;;;1.90;1.70;;;;;;;13.79;50.35;99464.61;105527;1254;74465;-37
2024/01/28 07:13:03;;;;;;;1.60;1.50;;;;;;;13.80;50.28;99469.90;105520;1259;66032;-37
2024/01/28 07:15:30;;;;;;;1.60;1.50;;;;;;;13.80;50.36;99468.07;105494;1255;72934;-37
2024/01/28 07:17:57;;;;;;;1.70;1.60;;;;;;;13.80;50.37;99469.04;105442;1259;61235;-37
2024/01/28 07:20:25;;;;;;;1.60;1.50;;;;;;;13.81;50.43;99468.33;105464;1254;61310;-36
2024/01/28 07:22:52;;;;;;;1.80;1.60;;;;;;;13.81;50.23;99467.04;105464;1260;74534;-37
2024/01/28 07:25:19;;;;;;;2.40;1.70;;;;;;;13.81;50.34;99470.81;105479;1258;65768;-37
2024/01/28 07:27:46;;;;;;;2.00;1.50;;;;;;;13.81;50.20;99474.52;105492;1253;72621;-37
2024/01/28 07:30:13;;;;;;;1.70;1.60;;;;;;;13.82;50.33;99473.49;105388;1260;61235;-36
2024/01/28 07:32:40;;;;;;;2.50;1.70;;;;;;;13.82;50.19;99478.71;105732;1254;61301;-36
2024/01/28 07:35:07;;;;;;;2.40;1.80;;;;;;;13.82;50.27;99479.52;105473;1260;74589;-37
2024/01/28 07:37:34;;;;;;;1.60;1.50;;;;;;;13.82;50.23;99478.23;105985;1257;65881;-37
2024/01/28 07:40:04;;;;;;;1.90;1.60;;;;;;;13.83;50.32;99484.20;105514;1257;72522;-37
2024/01/28 07:42:31;;;;;;;1.80;1.60;;;;;;;13.83;50.35;99487.21;106062;1254;61266;-35
2024/01/28 07:44:57;;;;;;;1.70;1.60;;;;;;;13.83;50.25;99483.77;105315;1254;61279;-36
2024/01/28 07:47:24;;;;;;;1.60;1.50;;;;;;;13.84;50.26;99483.34;106081;1257;74574;-37
2024/01/28 07:49:51;;;;;;;2.40;1.90;;;;;;;13.84;50.25;99485.40;105493;1261;66105;-35
2024/01/28 07:52:18;;;;;;;1.90;1.60;;;;;;;13.85;50.21;99487.65;105485;1254;72971;-37
2024/01/28 07:54:44;;;;;;;1.80;1.60;;;;;;;13.85;50.25;99491.44;105444;1258;61298;-37
2024/01/28 07:57:11;;;;;;;1.80;1.70;;;;;;;13.86;50.15;99492.17;105482;1254;61349;-37
2024/01/28 07:59:39;;;;;;;2.20;1.70;;;;;;;13.86;50.27;99497.66;105549;1255;74315;-37
2024/01/28 08:02:05;;;;;;;1.70;1.60;;;;;;;13.86;50.24;99498.57;105474;1257;66035;-37
2024/01/28 08:04:32;;;;;;;1.80;1.70;;;;;;;13.86;50.22;99504.77;105573;1255;72617;-36
2024/01/28 08:06:59;;;;;;;1.80;1.50;;;;;;;13.87;50.22;99510.42;105541;1257;61238;-37
2024/01/28 08:09:31;;;;;;;2.60;2.00;;;;;;;13.87;50.24;99515.27;105486;1256;61269;-37
2024/01/28 08:11:57;;;;;;;2.00;1.70;;;;;;;13.87;50.18;99515.92;105460;1260;74512;-34
2024/01/28 08:14:27;;;;;;;2.20;1.80;;;;;;;13.88;50.28;99516.35;105587;1258;65028;-36
2024/01/28 08:16:54;;;;;;;1.80;1.60;;;;;;;13.88;50.09;99520.27;105731;1254;72467;-36
2024/01/28 08:19:21;;;;;;;2.00;1.60;;;;;;;13.88;50.22;99521.46;105433;1261;61235;-36
2024/01/28 08:21:48;;;;;;;2.10;1.80;;;;;;;13.89;50.27;99522.27;105529;1255;61336;-36
2024/01/28 08:24:14;;;;;;;4.30;1.90;;;;;;;13.89;50.28;99522.75;105657;1254;74384;-36
2024/01/28 08:26:41;;;;;;;2.20;1.80;;;;;;;13.90;50.25;99532.16;105543;1260;66359;-35
2024/01/28 08:29:08;;;;;;;2.10;1.90;;;;;;;13.90;50.22;99538.52;105601;1254;72339;-35
2024/01/28 08:31:34;;;;;;;2.10;1.90;;;;;;;13.90;50.12;99543.16;105571;1267;61225;-36
2024/01/28 08:34:01;;;;;;;1.80;1.70;;;;;;;13.91;50.06;99543.33;105556;1260;61336;-35
2024/01/28 08:36:28;;;;;;;2.60;1.80;;;;;;;13.92;50.16;99543.70;105467;1256;74628;-37
2024/01/28 08:38:55;;;;;;;2.30;1.70;;;;;;;13.92;50.20;99546.98;105498;1260;66153;-37
2024/01/28 08:41:22;;;;;;;2.50;1.70;;;;;;;13.92;50.14;99544.08;105456;1254;72629;-37
2024/01/28 08:43:48;;;;;;;2.00;1.70;;;;;;;13.93;50.08;99547.09;105533;1258;61233;-36
2024/01/28 08:46:16;;;;;;;1.70;1.60;;;;;;;13.93;50.12;99550.27;105452;1254;61297;-36
2024/01/28 08:48:42;;;;;;;2.30;1.60;;;;;;;13.93;50.13;99552.85;105525;1254;73630;-37
2024/01/28 08:51:09;;;;;;;1.90;1.70;;;;;;;13.94;50.11;99558.84;105469;1257;65934;-36
2024/01/28 08:53:36;;;;;;;2.10;1.90;;;;;;;13.94;50.03;99564.38;105537;1255;72669;-36
2024/01/28 08:56:04;;;;;;;2.00;1.70;;;;;;;13.95;50.13;99564.16;105497;1258;61225;-37
2024/01/28 08:58:33;;;;;;;1.80;1.60;;;;;;;13.95;50.15;99567.45;105542;1254;61326;-37
2024/01/28 09:01:00;;;;;;;3.00;2.00;;;;;;;13.96;50.04;99569.66;105463;1258;73390;-37
2024/01/28 09:03:26;;;;;;;2.70;2.00;;;;;;;13.96;50.13;99575.05;105505;1254;66584;-37
2024/01/28 09:05:53;;;;;;;2.10;1.60;;;;;;;13.97;50.11;99573.64;105499;1254;72529;-37
2024/01/28 09:08:20;;;;;;;1.80;1.70;;;;;;;13.98;50.09;99578.31;105469;1260;61275;-35
2024/01/28 09:10:46;;;;;;;2.10;1.80;;;;;;;13.97;49.97;99583.17;105313;1260;61375;-35
2024/01/28 09:13:13;;;;;;;1.90;1.50;;;;;;;13.99;50.15;99585.88;105471;1254;74593;-37
2024/01/28 09:15:40;;;;;;;1.90;1.60;;;;;;;13.99;50.07;99585.96;105519;1258;66145;-36
2024/01/28 09:18:06;;;;;;;2.10;1.80;;;;;;;13.99;50.10;99591.78;105439;1254;72132;-37
2024/01/28 09:20:33;;;;;;;2.00;1.70;;;;;;;14.00;49.97;99599.44;105466;1257;61250;-37
2024/01/28 09:23:00;;;;;;;2.60;1.80;;;;;;;14.01;49.93;99599.27;105575;1254;61391;-37
2024/01/28 09:25:28;;;;;;;2.10;1.90;;;;;;;14.01;49.98;99597.98;105518;1254;73395;-37
2024/01/28 09:27:55;;;;;;;1.70;1.60;;;;;;;14.02;49.99;99598.99;105669;1255;66004;-37
2024/01/28 09:30:22;;;;;;;2.20;1.90;;;;;;;14.02;49.94;99599.36;105626;1254;72459;-37
2024/01/28 09:32:49;;;;;;;2.10;1.60;;;;;;;14.03;50.06;99597.98;105522;1258;61289;-37
2024/01/28 09:35:16;;;;;;;2.00;1.80;;;;;;;14.03;50.03;99603.30;105478;1257;61337;-37
2024/01/28 09:37:42;;;;;;;2.10;1.90;;;;;;;14.04;49.98;99603.14;105655;1254;74581;-37
2024/01/28 09:40:12;;;;;;;1.70;1.50;;;;;;;14.05;49.97;99601.75;105560;1258;65788;-37
2024/01/28 09:42:39;;;;;;;1.70;1.60;;;;;;;14.06;49.99;99601.58;105767;1254;72303;-36
2024/01/28 09:45:06;;;;;;;2.20;1.60;;;;;;;14.06;49.98;99596.67;105574;1258;61356;-36
2024/01/28 09:47:33;;;;;;;2.10;1.70;;;;;;;14.07;49.98;99598.34;105968;1254;61227;-36
2024/01/28 09:50:02;;;;;;;2.70;1.70;;;;;;;14.08;49.94;99596.08;105302;1254;73407;-36
2024/01/28 09:52:29;;;;;;;1.70;1.50;;;;;;;14.09;49.91;99599.34;106043;1253;65484;-37
2024/01/28 09:54:56;;;;;;;2.70;1.90;;;;;;;14.10;49.98;99602.38;105440;1254;72593;-37
2024/01/28 09:57:23;;;;;;;2.50;1.70;;;;;;;14.10;49.91;99603.40;105489;1257;61113;-37
2024/01/28 09:59:50;;;;;;;2.00;1.80;;;;;;;14.11;49.94;99597.52;105412;1254;61294;-37
2024/01/28 10:02:17;;;;;;;2.60;2.00;;;;;;;14.12;49.88;99596.01;105505;1257;74388;-37
2024/01/28 10:04:46;;;;;;;2.60;1.80;;;;;;;14.13;49.91;99599.40;105615;1258;66015;-37
2024/01/28 10:07:15;;;;;;;1.70;1.60;;;;;;;14.13;49.81;99595.57;106108;1254;71674;-36
2024/01/28 10:09:43;;;;;;;2.20;1.60;;;;;;;14.15;49.95;99596.58;105512;1254;61362;-36
2024/01/28 10:12:10;;;;;;;1.90;1.60;;;;;;;14.14;49.85;99592.33;105513;1254;61386;-36
2024/01/28 10:14:37;;;;;;;2.40;1.90;;;;;;;14.15;49.90;99591.10;105601;1254;74614;-36
2024/01/28 10:17:03;;;;;;;1.60;1.50;;;;;;;14.16;49.81;99597.71;105289;1260;66203;-37
2024/01/28 10:19:30;;;;;;;2.00;1.70;;;;;;;14.17;49.92;99601.70;105493;1254;73099;-36
2024/01/28 10:21:59;;;;;;;2.20;1.80;;;;;;;14.18;49.82;99609.12;105509;1254;61247;-36
2024/01/28 10:24:25;;;;;;;1.90;1.60;;;;;;;14.18;49.83;99611.34;105691;1254;61267;-36
2024/01/28 10:26:52;;;;;;;1.90;1.70;;;;;;;14.19;49.78;99611.02;105172;1254;74395;-35
2024/01/28 10:29:20;;;;;;;1.80;1.60;;;;;;;14.20;49.89;99612.48;105527;1260;66060;-36
2024/01/28 10:31:47;;;;;;;2.60;1.60;;;;;;;14.21;49.75;99606.59;105491;1254;71412;-36
2024/01/28 10:34:14;;;;;;;1.80;1.50;;;;;;;14.22;49.81;99605.73;105646;1260;61231;-36
2024/01/28 10:36:42;;;;;;;2.00;1.80;;;;;;;14.22;49.75;99604.92;105557;1254;61195;-37
2024/01/28 10:39:09;;;;;;;2.10;1.90;;;;;;;14.22;49.78;99605.73;105304;1262;74568;-36
2024/01/28 10:41:38;;;;;;;1.90;1.70;;;;;;;14.23;49.69;99607.92;105240;1260;67398;-37
2024/01/28 10:44:06;;;;;;;2.00;1.70;;;;;;;14.24;49.83;99607.60;105376;1260;72433;-36
2024/01/28 10:46:38;;;;;;;1.90;1.70;;;;;;;14.25;49.69;99611.43;105457;1254;146671;-36
2024/01/28 10:49:06;;;;;;;2.10;1.60;;;;;;;14.25;49.60;99615.25;105616;1254;61192;-36
2024/01/28 10:51:34;;;;;;;2.50;1.90;;;;;;;14.27;49.76;99620.80;105497;1255;75645;-36
2024/01/28 10:54:03;;;;;;;2.00;1.80;;;;;;;14.27;49.77;99620.00;105603;1258;65697;-37
2024/01/28 10:56:37;;;;;;;1.60;1.50;;;;;;;14.28;49.73;99621.11;105487;1259;71188;-37
2024/01/28 10:59:04;;;;;;;1.70;1.50;;;;;;;14.28;49.69;99623.39;105509;1254;61258;-38
2024/01/28 11:01:31;;;;;;;2.10;1.80;;;;;;;14.29;49.61;99624.20;105617;1256;61366;-37
2024/01/28 11:03:58;;;;;;;2.00;1.80;;;;;;;14.30;49.66;99623.08;105633;1254;74450;-37
2024/01/28 11:06:26;;;;;;;2.00;1.50;;;;;;;14.31;49.76;99626.91;105313;1256;66194;-37
2024/01/28 11:08:54;;;;;;;2.30;1.70;;;;;;;14.32;49.64;99624.05;105487;1257;72580;-37
2024/01/28 11:11:22;;;;;;;2.00;1.70;;;;;;;14.32;49.66;99629.48;105502;1254;61363;-37
2024/01/28 11:13:49;;;;;;;2.00;1.80;;;;;;;14.33;49.58;99629.75;105662;1259;61375;-37
2024/01/28 11:16:15;;;;;;;1.70;1.60;;;;;;;14.33;49.55;99627.60;105496;1254;74572;-37
2024/01/28 11:18:58;;;;;;;2.20;1.80;;;;;;;14.34;49.60;99633.58;105453;1260;66030;-37
2024/01/28 11:21:26;;;;;;;1.70;1.60;;;;;;;14.35;49.56;99637.36;105577;1254;71512;-36
2024/01/28 11:23:54;;;;;;;2.20;1.80;;;;;;;14.35;49.63;99632.02;105490;1257;61439;-36